Weather at Easton Airport / Newnam Field

Public forecast

Using degrees Fahrenheit for public forecast. Weather courtesy of forecast.io.

Current aviation weather report (METAR) for Easton Airport / Newnam Field

Retrieved 2020/09/29 18:50 UTC (34 minutes ago):

KESN 291850Z 15006KT 10SM SCT010 SCT026 OVC040 24/23 A2981

Closest aviation forecast (TAF) to Easton Airport / Newnam Field

Closest forecast is Dover Air Force Base, 34.3 nm (63.5 km) NE. Retrieved 2020/09/29 16:34 UTC (3 hours ago):

TAF KDOV 291600Z 2916/3022 17009KT 9999 OVC020 QNH2979INS BECMG 2919/2920 17010G20KT 8000 -RA OVC015 QNH2961INS BECMG 3005/3006 27015G25KT 8000 SHRA OVC005 QNH2961INS BECMG 3010/3011 28009KT 8000 -RA BKN020 QNH2977INS BECMG 3012/3013 28012KT 9999 NSW OVC020 QNH2977INS TX23/2921Z TN15/3009Z